sensor_id;sensor_type;location;lat;lon;timestamp;pressure;altitude;pressure_sealevel;temperature;humidity
550;BME280;20066;48.764;9.176;2023-06-19T00:00:14;97730.59;;;26.55;36.83
550;BME280;20066;48.764;9.176;2023-06-19T00:02:43;97735.41;;;26.66;36.83
550;BME280;20066;48.764;9.176;2023-06-19T00:05:12;97733.59;;;26.63;36.57
550;BME280;20066;48.764;9.176;2023-06-19T00:07:40;97731.63;;;26.74;36.84
550;BME280;20066;48.764;9.176;2023-06-19T00:10:08;97735.38;;;26.55;37.30
550;BME280;20066;48.764;9.176;2023-06-19T00:12:36;97736.38;;;26.63;36.62
550;BME280;20066;48.764;9.176;2023-06-19T00:15:05;97738.16;;;26.66;36.59
550;BME280;20066;48.764;9.176;2023-06-19T00:17:34;97735.88;;;26.81;36.50
550;BME280;20066;48.764;9.176;2023-06-19T00:20:06;97728.34;;;26.31;37.27
550;BME280;20066;48.764;9.176;2023-06-19T00:22:34;97737.53;;;27.23;35.35
550;BME280;20066;48.764;9.176;2023-06-19T00:25:02;97736.63;;;27.62;35.23
550;BME280;20066;48.764;9.176;2023-06-19T00:27:30;97742.31;;;27.86;34.49
550;BME280;20066;48.764;9.176;2023-06-19T00:29:58;97738.44;;;27.59;34.99
550;BME280;20066;48.764;9.176;2023-06-19T00:32:29;97741.94;;;27.54;35.24
550;BME280;20066;48.764;9.176;2023-06-19T00:34:57;97739.00;;;27.41;36.09
550;BME280;20066;48.764;9.176;2023-06-19T00:37:28;97741.63;;;26.89;36.91
550;BME280;20066;48.764;9.176;2023-06-19T00:39:58;97738.66;;;26.70;37.07
550;BME280;20066;48.764;9.176;2023-06-19T00:42:26;97746.66;;;26.62;36.66
550;BME280;20066;48.764;9.176;2023-06-19T00:44:54;97742.13;;;26.93;35.79
550;BME280;20066;48.764;9.176;2023-06-19T00:47:22;97743.06;;;27.29;35.85
550;BME280;20066;48.764;9.176;2023-06-19T00:49:51;97752.72;;;27.63;35.04
550;BME280;20066;48.764;9.176;2023-06-19T00:52:19;97754.09;;;27.34;35.48
550;BME280;20066;48.764;9.176;2023-06-19T00:54:48;97757.63;;;27.18;36.20
550;BME280;20066;48.764;9.176;2023-06-19T00:57:16;97758.97;;;26.72;36.49
550;BME280;20066;48.764;9.176;2023-06-19T00:59:44;97755.69;;;26.13;37.46
550;BME280;20066;48.764;9.176;2023-06-19T01:02:12;97760.97;;;26.27;37.51
550;BME280;20066;48.764;9.176;2023-06-19T01:04:40;97764.25;;;26.76;36.61
550;BME280;20066;48.764;9.176;2023-06-19T01:07:09;97755.13;;;27.26;35.70
550;BME280;20066;48.764;9.176;2023-06-19T01:09:44;97769.00;;;26.98;36.38
550;BME280;20066;48.764;9.176;2023-06-19T01:12:17;97770.22;;;27.08;36.67
550;BME280;20066;48.764;9.176;2023-06-19T01:14:50;97805.63;;;26.37;38.43
550;BME280;20066;48.764;9.176;2023-06-19T01:17:21;97809.69;;;25.28;40.60
550;BME280;20066;48.764;9.176;2023-06-19T01:19:49;97814.84;;;25.15;41.01
550;BME280;20066;48.764;9.176;2023-06-19T01:22:26;97827.28;;;24.74;40.78
550;BME280;20066;48.764;9.176;2023-06-19T01:24:53;97832.97;;;25.33;39.72
550;BME280;20066;48.764;9.176;2023-06-19T01:27:22;97827.63;;;25.18;40.12
550;BME280;20066;48.764;9.176;2023-06-19T01:29:51;97828.53;;;24.73;41.01
550;BME280;20066;48.764;9.176;2023-06-19T01:32:23;97828.81;;;24.75;41.16
550;BME280;20066;48.764;9.176;2023-06-19T01:34:54;97828.16;;;24.85;40.86
550;BME280;20066;48.764;9.176;2023-06-19T01:37:26;97829.22;;;24.93;40.95
550;BME280;20066;48.764;9.176;2023-06-19T01:39:56;97842.13;;;25.13;40.22
550;BME280;20066;48.764;9.176;2023-06-19T01:42:25;97834.28;;;25.06;40.45
550;BME280;20066;48.764;9.176;2023-06-19T01:44:54;97836.22;;;24.69;41.63
550;BME280;20066;48.764;9.176;2023-06-19T01:47:21;97828.84;;;25.49;39.99
550;BME280;20066;48.764;9.176;2023-06-19T01:49:49;97842.53;;;25.01;41.22
550;BME280;20066;48.764;9.176;2023-06-19T01:52:17;97841.16;;;24.85;41.83
550;BME280;20066;48.764;9.176;2023-06-19T01:54:46;97836.56;;;24.76;42.49
550;BME280;20066;48.764;9.176;2023-06-19T01:57:14;97849.66;;;24.81;42.52
550;BME280;20066;48.764;9.176;2023-06-19T01:59:42;97841.84;;;24.54;42.80
550;BME280;20066;48.764;9.176;2023-06-19T02:02:10;97834.56;;;25.08;42.25
550;BME280;20066;48.764;9.176;2023-06-19T02:04:38;97830.03;;;24.22;44.13
550;BME280;20066;48.764;9.176;2023-06-19T02:07:06;97824.91;;;24.87;43.13
550;BME280;20066;48.764;9.176;2023-06-19T02:09:33;97826.94;;;24.92;43.06
550;BME280;20066;48.764;9.176;2023-06-19T02:12:03;97822.41;;;23.91;45.46
550;BME280;20066;48.764;9.176;2023-06-19T02:14:31;97827.19;;;24.11;45.20
550;BME280;20066;48.764;9.176;2023-06-19T02:16:59;97824.59;;;24.07;45.47
550;BME280;20066;48.764;9.176;2023-06-19T02:19:26;97823.25;;;23.97;45.03
550;BME280;20066;48.764;9.176;2023-06-19T02:21:54;97827.16;;;23.91;45.67
550;BME280;20066;48.764;9.176;2023-06-19T02:24:22;97830.13;;;24.28;44.99
550;BME280;20066;48.764;9.176;2023-06-19T02:26:50;97826.91;;;23.89;46.59
550;BME280;20066;48.764;9.176;2023-06-19T02:29:19;97820.16;;;23.49;47.37
550;BME280;20066;48.764;9.176;2023-06-19T02:31:48;97830.25;;;24.18;45.93
550;BME280;20066;48.764;9.176;2023-06-19T02:34:16;97828.47;;;24.67;44.91
550;BME280;20066;48.764;9.176;2023-06-19T02:36:44;97829.41;;;24.59;45.46
550;BME280;20066;48.764;9.176;2023-06-19T02:39:13;97834.44;;;24.91;44.36
550;BME280;20066;48.764;9.176;2023-06-19T02:41:42;97838.44;;;24.90;44.73
550;BME280;20066;48.764;9.176;2023-06-19T02:44:12;97833.84;;;24.50;45.54
550;BME280;20066;48.764;9.176;2023-06-19T02:46:42;97839.13;;;24.80;44.81
550;BME280;20066;48.764;9.176;2023-06-19T02:49:10;97833.88;;;25.50;43.47
550;BME280;20066;48.764;9.176;2023-06-19T02:51:38;97831.50;;;25.86;42.64
550;BME280;20066;48.764;9.176;2023-06-19T02:54:08;97836.63;;;25.13;43.68
550;BME280;20066;48.764;9.176;2023-06-19T02:56:35;97836.53;;;25.02;44.52
550;BME280;20066;48.764;9.176;2023-06-19T02:59:03;97848.47;;;24.68;45.10
550;BME280;20066;48.764;9.176;2023-06-19T03:01:31;97846.34;;;23.85;47.60
550;BME280;20066;48.764;9.176;2023-06-19T03:04:02;97857.47;;;24.68;45.91
550;BME280;20066;48.764;9.176;2023-06-19T03:06:30;97858.03;;;24.72;45.52
550;BME280;20066;48.764;9.176;2023-06-19T03:08:59;97858.97;;;23.57;48.34
550;BME280;20066;48.764;9.176;2023-06-19T03:11:27;97859.44;;;23.75;47.70
550;BME280;20066;48.764;9.176;2023-06-19T03:13:56;97851.19;;;23.55;48.69
550;BME280;20066;48.764;9.176;2023-06-19T03:16:24;97866.88;;;24.56;46.50
550;BME280;20066;48.764;9.176;2023-06-19T03:18:52;97866.88;;;24.56;45.58
550;BME280;20066;48.764;9.176;2023-06-19T03:21:21;97870.44;;;23.55;48.55
550;BME280;20066;48.764;9.176;2023-06-19T03:23:49;97864.06;;;23.64;48.01
550;BME280;20066;48.764;9.176;2023-06-19T03:26:18;97861.28;;;23.29;49.42
550;BME280;20066;48.764;9.176;2023-06-19T03:28:46;97874.19;;;23.08;49.88
550;BME280;20066;48.764;9.176;2023-06-19T03:31:14;97878.63;;;23.20;49.81
550;BME280;20066;48.764;9.176;2023-06-19T03:33:42;97875.72;;;22.94;50.51
550;BME280;20066;48.764;9.176;2023-06-19T03:36:10;97866.34;;;23.65;48.48
550;BME280;20066;48.764;9.176;2023-06-19T03:38:40;97872.22;;;23.09;50.33
550;BME280;20066;48.764;9.176;2023-06-19T03:41:07;97876.03;;;22.96;50.91
550;BME280;20066;48.764;9.176;2023-06-19T03:43:35;97877.72;;;22.79;51.83
550;BME280;20066;48.764;9.176;2023-06-19T03:46:03;97891.03;;;23.16;50.88
550;BME280;20066;48.764;9.176;2023-06-19T03:48:31;97882.28;;;23.47;50.24
550;BME280;20066;48.764;9.176;2023-06-19T03:50:59;97900.34;;;23.03;52.03
550;BME280;20066;48.764;9.176;2023-06-19T03:53:27;97896.34;;;22.90;52.68
550;BME280;20066;48.764;9.176;2023-06-19T03:55:56;97895.44;;;23.28;51.46
550;BME280;20066;48.764;9.176;2023-06-19T03:58:24;97893.81;;;23.36;51.11
550;BME280;20066;48.764;9.176;2023-06-19T04:00:52;97897.97;;;23.11;51.43
550;BME280;20066;48.764;9.176;2023-06-19T04:03:20;97907.22;;;23.43;50.94
550;BME280;20066;48.764;9.176;2023-06-19T04:05:47;97914.41;;;23.75;50.06
550;BME280;20066;48.764;9.176;2023-06-19T04:08:15;97913.47;;;23.14;51.52
550;BME280;20066;48.764;9.176;2023-06-19T04:10:43;97919.91;;;23.26;52.08
550;BME280;20066;48.764;9.176;2023-06-19T04:13:13;97924.78;;;23.51;51.51
550;BME280;20066;48.764;9.176;2023-06-19T04:15:40;97934.84;;;23.89;50.57
550;BME280;20066;48.764;9.176;2023-06-19T04:18:11;97928.09;;;23.55;52.04
550;BME280;20066;48.764;9.176;2023-06-19T04:20:39;97924.03;;;23.36;52.62
550;BME280;20066;48.764;9.176;2023-06-19T04:23:07;97915.09;;;23.91;51.16
550;BME280;20066;48.764;9.176;2023-06-19T04:25:35;97922.16;;;23.77;51.50
550;BME280;20066;48.764;9.176;2023-06-19T04:28:03;97916.84;;;23.38;52.31
550;BME280;20066;48.764;9.176;2023-06-19T04:30:32;97919.59;;;24.29;50.32
550;BME280;20066;48.764;9.176;2023-06-19T04:33:00;97917.50;;;23.48;52.46
550;BME280;20066;48.764;9.176;2023-06-19T04:35:28;97913.03;;;23.86;51.10
550;BME280;20066;48.764;9.176;2023-06-19T04:37:57;97910.94;;;22.96;53.47
550;BME280;20066;48.764;9.176;2023-06-19T04:40:27;97911.06;;;22.48;55.42
550;BME280;20066;48.764;9.176;2023-06-19T04:42:55;97902.94;;;23.13;53.20
550;BME280;20066;48.764;9.176;2023-06-19T04:45:23;97910.34;;;23.71;51.46
550;BME280;20066;48.764;9.176;2023-06-19T04:47:52;97916.25;;;23.64;51.79
550;BME280;20066;48.764;9.176;2023-06-19T04:50:20;97912.94;;;23.60;52.37
550;BME280;20066;48.764;9.176;2023-06-19T04:52:49;97914.03;;;23.68;51.96
550;BME280;20066;48.764;9.176;2023-06-19T04:55:18;97918.66;;;24.58;49.57
550;BME280;20066;48.764;9.176;2023-06-19T04:57:46;97919.63;;;23.73;52.37
550;BME280;20066;48.764;9.176;2023-06-19T05:00:15;97927.63;;;23.57;52.39
550;BME280;20066;48.764;9.176;2023-06-19T05:02:46;97932.09;;;23.25;53.46
550;BME280;20066;48.764;9.176;2023-06-19T05:05:15;97932.50;;;23.18;53.88
550;BME280;20066;48.764;9.176;2023-06-19T05:07:47;97946.56;;;23.40;53.55
550;BME280;20066;48.764;9.176;2023-06-19T05:10:15;97937.31;;;24.07;51.75
550;BME280;20066;48.764;9.176;2023-06-19T05:12:43;97940.09;;;23.72;52.12
550;BME280;20066;48.764;9.176;2023-06-19T05:15:10;97935.84;;;24.52;50.63
550;BME280;20066;48.764;9.176;2023-06-19T05:17:38;97940.81;;;24.08;51.71
550;BME280;20066;48.764;9.176;2023-06-19T05:20:07;97937.97;;;23.47;53.75
550;BME280;20066;48.764;9.176;2023-06-19T05:22:36;97943.38;;;23.41;53.98
550;BME280;20066;48.764;9.176;2023-06-19T05:25:05;97939.13;;;22.96;55.27
550;BME280;20066;48.764;9.176;2023-06-19T05:27:33;97939.13;;;23.40;53.52
550;BME280;20066;48.764;9.176;2023-06-19T05:30:01;97925.13;;;23.09;55.15
550;BME280;20066;48.764;9.176;2023-06-19T05:32:30;97940.25;;;23.49;54.07
550;BME280;20066;48.764;9.176;2023-06-19T05:34:58;97937.56;;;23.54;53.27
550;BME280;20066;48.764;9.176;2023-06-19T05:37:26;97931.19;;;24.38;51.33
550;BME280;20066;48.764;9.176;2023-06-19T05:39:56;97946.94;;;23.62;53.16
550;BME280;20066;48.764;9.176;2023-06-19T05:42:26;97939.69;;;23.79;52.70
550;BME280;20066;48.764;9.176;2023-06-19T05:44:54;97942.69;;;23.32;54.12
550;BME280;20066;48.764;9.176;2023-06-19T05:47:22;97942.31;;;23.39;53.60
550;BME280;20066;48.764;9.176;2023-06-19T05:49:52;97950.75;;;23.21;55.24
550;BME280;20066;48.764;9.176;2023-06-19T05:52:20;97947.34;;;23.40;54.53
550;BME280;20066;48.764;9.176;2023-06-19T05:54:48;97959.47;;;23.34;54.42
550;BME280;20066;48.764;9.176;2023-06-19T05:57:17;97963.91;;;23.96;53.29
550;BME280;20066;48.764;9.176;2023-06-19T05:59:47;97966.97;;;24.59;51.19
550;BME280;20066;48.764;9.176;2023-06-19T06:02:15;97969.50;;;25.14;49.41
550;BME280;20066;48.764;9.176;2023-06-19T06:04:43;97975.00;;;25.40;49.62
550;BME280;20066;48.764;9.176;2023-06-19T06:07:11;97974.72;;;24.80;51.02
550;BME280;20066;48.764;9.176;2023-06-19T06:09:40;97978.28;;;24.66;51.16
550;BME280;20066;48.764;9.176;2023-06-19T06:12:08;97979.81;;;24.27;52.44
550;BME280;20066;48.764;9.176;2023-06-19T06:14:37;97985.44;;;24.38;51.96
550;BME280;20066;48.764;9.176;2023-06-19T06:17:05;97980.28;;;24.45;52.25
550;BME280;20066;48.764;9.176;2023-06-19T06:19:33;97985.63;;;23.79;53.99
550;BME280;20066;48.764;9.176;2023-06-19T06:22:03;97986.63;;;24.11;52.86
550;BME280;20066;48.764;9.176;2023-06-19T06:24:31;97981.59;;;24.09;52.70
550;BME280;20066;48.764;9.176;2023-06-19T06:26:59;97989.56;;;23.93;53.35
550;BME280;20066;48.764;9.176;2023-06-19T06:29:27;97999.72;;;25.28;49.95
550;BME280;20066;48.764;9.176;2023-06-19T06:32:04;97992.25;;;25.09;49.80
550;BME280;20066;48.764;9.176;2023-06-19T06:34:33;97997.97;;;24.59;51.03
550;BME280;20066;48.764;9.176;2023-06-19T06:37:01;98000.91;;;24.15;52.27
550;BME280;20066;48.764;9.176;2023-06-19T06:39:32;98000.09;;;24.49;51.27
550;BME280;20066;48.764;9.176;2023-06-19T06:42:00;98005.84;;;24.92;50.11
550;BME280;20066;48.764;9.176;2023-06-19T06:44:28;98011.78;;;25.62;48.09
550;BME280;20066;48.764;9.176;2023-06-19T06:46:56;98008.59;;;24.92;50.36
550;BME280;20066;48.764;9.176;2023-06-19T06:49:26;98011.28;;;26.01;47.38
550;BME280;20066;48.764;9.176;2023-06-19T06:51:54;98011.38;;;25.75;46.85
550;BME280;20066;48.764;9.176;2023-06-19T06:54:23;98023.56;;;26.00;46.59
550;BME280;20066;48.764;9.176;2023-06-19T06:56:51;98014.97;;;25.87;46.50
550;BME280;20066;48.764;9.176;2023-06-19T06:59:23;98012.59;;;24.91;48.59
550;BME280;20066;48.764;9.176;2023-06-19T07:01:51;98008.72;;;25.29;47.59
550;BME280;20066;48.764;9.176;2023-06-19T07:04:18;98022.13;;;25.73;46.78
550;BME280;20066;48.764;9.176;2023-06-19T07:06:48;98017.28;;;24.65;48.04
550;BME280;20066;48.764;9.176;2023-06-19T07:09:16;98023.78;;;25.33;47.82
550;BME280;20066;48.764;9.176;2023-06-19T07:11:43;98037.28;;;25.57;46.88
550;BME280;20066;48.764;9.176;2023-06-19T07:14:11;98024.59;;;25.40;46.90
550;BME280;20066;48.764;9.176;2023-06-19T07:16:39;98028.72;;;25.50;46.46
550;BME280;20066;48.764;9.176;2023-06-19T07:19:07;98021.44;;;25.52;46.57
550;BME280;20066;48.764;9.176;2023-06-19T07:21:35;98017.03;;;24.42;48.51
550;BME280;20066;48.764;9.176;2023-06-19T07:24:04;98022.78;;;24.85;47.67
550;BME280;20066;48.764;9.176;2023-06-19T07:26:32;98020.22;;;25.27;46.71
550;BME280;20066;48.764;9.176;2023-06-19T07:29:00;98021.03;;;25.59;46.55
550;BME280;20066;48.764;9.176;2023-06-19T07:31:28;98030.22;;;25.82;45.58
550;BME280;20066;48.764;9.176;2023-06-19T07:33:56;98027.56;;;25.62;46.32
550;BME280;20066;48.764;9.176;2023-06-19T07:36:24;98037.81;;;26.30;44.45
550;BME280;20066;48.764;9.176;2023-06-19T07:38:52;98038.66;;;27.17;42.62
550;BME280;20066;48.764;9.176;2023-06-19T07:41:22;98032.75;;;26.71;43.03
550;BME280;20066;48.764;9.176;2023-06-19T07:43:50;98043.50;;;27.45;42.44
550;BME280;20066;48.764;9.176;2023-06-19T07:46:17;98048.63;;;26.87;42.97
550;BME280;20066;48.764;9.176;2023-06-19T07:48:45;98039.47;;;27.35;42.32
550;BME280;20066;48.764;9.176;2023-06-19T07:51:13;98042.25;;;28.07;41.04
550;BME280;20066;48.764;9.176;2023-06-19T07:53:41;98044.00;;;27.66;41.66
550;BME280;20066;48.764;9.176;2023-06-19T07:56:10;98046.28;;;27.67;40.99
550;BME280;20066;48.764;9.176;2023-06-19T07:58:39;98057.59;;;27.91;40.80
550;BME280;20066;48.764;9.176;2023-06-19T08:01:08;98052.19;;;28.55;40.76
550;BME280;20066;48.764;9.176;2023-06-19T08:03:36;98045.59;;;28.63;39.45
550;BME280;20066;48.764;9.176;2023-06-19T08:06:05;98048.47;;;28.24;41.41
550;BME280;20066;48.764;9.176;2023-06-19T08:08:33;98049.00;;;27.62;42.20
550;BME280;20066;48.764;9.176;2023-06-19T08:11:01;98042.22;;;28.02;41.30
550;BME280;20066;48.764;9.176;2023-06-19T08:13:29;98051.00;;;28.22;41.44
550;BME280;20066;48.764;9.176;2023-06-19T08:15:58;98052.00;;;28.30;39.91
550;BME280;20066;48.764;9.176;2023-06-19T08:18:26;98046.75;;;27.32;41.67
550;BME280;20066;48.764;9.176;2023-06-19T08:20:54;98048.75;;;28.15;40.22
550;BME280;20066;48.764;9.176;2023-06-19T08:23:22;98040.47;;;27.93;40.58
550;BME280;20066;48.764;9.176;2023-06-19T08:25:50;98038.53;;;26.25;43.93
550;BME280;20066;48.764;9.176;2023-06-19T08:28:18;98039.31;;;26.84;42.78
550;BME280;20066;48.764;9.176;2023-06-19T08:30:46;98036.59;;;26.96;42.04
550;BME280;20066;48.764;9.176;2023-06-19T08:33:15;98029.66;;;27.39;41.45
550;BME280;20066;48.764;9.176;2023-06-19T08:35:43;98031.88;;;27.18;42.61
550;BME280;20066;48.764;9.176;2023-06-19T08:38:13;98030.81;;;26.94;43.01
550;BME280;20066;48.764;9.176;2023-06-19T08:40:41;98038.72;;;27.40;41.88
550;BME280;20066;48.764;9.176;2023-06-19T08:43:09;98033.69;;;27.49;41.39
550;BME280;20066;48.764;9.176;2023-06-19T08:45:37;98032.91;;;28.10;40.60
550;BME280;20066;48.764;9.176;2023-06-19T08:48:05;98029.63;;;28.23;41.37
550;BME280;20066;48.764;9.176;2023-06-19T08:50:36;98026.16;;;27.89;40.80
550;BME280;20066;48.764;9.176;2023-06-19T08:53:04;98019.31;;;27.17;41.96
550;BME280;20066;48.764;9.176;2023-06-19T08:55:32;98026.09;;;28.28;41.39
550;BME280;20066;48.764;9.176;2023-06-19T08:58:01;98015.81;;;28.12;40.66
550;BME280;20066;48.764;9.176;2023-06-19T09:00:29;98016.28;;;28.27;39.82
550;BME280;20066;48.764;9.176;2023-06-19T09:02:59;98014.59;;;29.58;37.43
550;BME280;20066;48.764;9.176;2023-06-19T09:05:42;98009.47;;;30.65;36.77
550;BME280;20066;48.764;9.176;2023-06-19T09:08:17;98013.69;;;30.90;35.10
550;BME280;20066;48.764;9.176;2023-06-19T09:10:55;98009.69;;;31.05;34.50
550;BME280;20066;48.764;9.176;2023-06-19T09:13:23;98019.06;;;31.39;34.00
550;BME280;20066;48.764;9.176;2023-06-19T09:15:58;98016.28;;;31.39;34.04
550;BME280;20066;48.764;9.176;2023-06-19T09:18:27;98014.59;;;31.81;33.32
550;BME280;20066;48.764;9.176;2023-06-19T09:20:58;98016.47;;;31.09;33.33
550;BME280;20066;48.764;9.176;2023-06-19T09:23:28;98011.66;;;30.72;34.99
550;BME280;20066;48.764;9.176;2023-06-19T09:25:57;98010.63;;;31.77;33.75
550;BME280;20066;48.764;9.176;2023-06-19T09:28:26;98009.47;;;33.11;30.70
550;BME280;20066;48.764;9.176;2023-06-19T09:30:55;98005.50;;;31.49;32.41
550;BME280;20066;48.764;9.176;2023-06-19T09:33:25;97996.88;;;32.24;31.56
550;BME280;20066;48.764;9.176;2023-06-19T09:35:54;98001.00;;;31.91;32.45
550;BME280;20066;48.764;9.176;2023-06-19T09:38:27;97997.06;;;31.86;32.85
550;BME280;20066;48.764;9.176;2023-06-19T09:40:56;97997.88;;;30.42;34.14
550;BME280;20066;48.764;9.176;2023-06-19T09:43:32;98000.28;;;32.17;32.89
550;BME280;20066;48.764;9.176;2023-06-19T09:46:02;98003.78;;;32.04;31.45
550;BME280;20066;48.764;9.176;2023-06-19T09:48:31;98000.97;;;30.57;33.64
550;BME280;20066;48.764;9.176;2023-06-19T09:51:08;97998.78;;;31.25;32.75
550;BME280;20066;48.764;9.176;2023-06-19T09:53:39;97998.41;;;31.16;33.42
550;BME280;20066;48.764;9.176;2023-06-19T09:56:07;97996.31;;;31.86;32.14
550;BME280;20066;48.764;9.176;2023-06-19T09:58:36;98001.94;;;31.16;34.70
550;BME280;20066;48.764;9.176;2023-06-19T10:01:05;97999.66;;;31.33;34.88
550;BME280;20066;48.764;9.176;2023-06-19T10:03:35;98001.59;;;31.07;35.34
550;BME280;20066;48.764;9.176;2023-06-19T10:06:04;98004.47;;;30.58;35.54
550;BME280;20066;48.764;9.176;2023-06-19T10:08:40;98001.53;;;30.07;36.67
550;BME280;20066;48.764;9.176;2023-06-19T10:11:09;98001.78;;;30.52;35.77
550;BME280;20066;48.764;9.176;2023-06-19T10:13:39;97994.53;;;29.41;37.39
550;BME280;20066;48.764;9.176;2023-06-19T10:16:12;97995.88;;;29.64;37.13
550;BME280;20066;48.764;9.176;2023-06-19T10:18:47;98002.16;;;31.37;34.33
550;BME280;20066;48.764;9.176;2023-06-19T10:21:16;97996.06;;;31.70;33.86
550;BME280;20066;48.764;9.176;2023-06-19T10:23:53;97998.59;;;30.67;34.83
550;BME280;20066;48.764;9.176;2023-06-19T10:26:29;97993.69;;;31.29;34.32
550;BME280;20066;48.764;9.176;2023-06-19T10:28:57;97992.00;;;33.11;31.68
550;BME280;20066;48.764;9.176;2023-06-19T10:31:25;97991.88;;;33.16;31.52
550;BME280;20066;48.764;9.176;2023-06-19T10:33:55;97992.31;;;34.11;30.26
550;BME280;20066;48.764;9.176;2023-06-19T10:36:23;97988.88;;;34.05;30.63
550;BME280;20066;48.764;9.176;2023-06-19T10:38:53;97987.97;;;31.99;32.69
550;BME280;20066;48.764;9.176;2023-06-19T10:41:23;97986.34;;;32.56;32.62
550;BME280;20066;48.764;9.176;2023-06-19T10:43:56;97984.09;;;31.89;33.36
550;BME280;20066;48.764;9.176;2023-06-19T10:46:28;97991.59;;;31.17;34.18
550;BME280;20066;48.764;9.176;2023-06-19T10:49:57;66213.31;;;-146.61;100.00
550;BME280;20066;48.764;9.176;2023-06-19T10:53:24;66213.31;;;-146.61;100.00
550;BME280;20066;48.764;9.176;2023-06-19T10:56:55;66213.31;;;-146.61;100.00
550;BME280;20066;48.764;9.176;2023-06-19T11:00:23;66213.31;;;-146.61;100.00
550;BME280;20066;48.764;9.176;2023-06-19T11:03:50;66213.31;;;-146.61;100.00
550;BME280;20066;48.764;9.176;2023-06-19T11:07:17;66213.31;;;-146.61;100.00
550;BME280;20066;48.764;9.176;2023-06-19T11:10:44;66213.31;;;-146.61;100.00
550;BME280;20066;48.764;9.176;2023-06-19T11:14:14;66213.31;;;-146.61;100.00
550;BME280;20066;48.764;9.176;2023-06-19T11:19:57;97991.59;;;31.17;34.18
550;BME280;20066;48.764;9.176;2023-06-19T11:22:39;97983.44;;;33.50;32.03
550;BME280;20066;48.764;9.176;2023-06-19T11:25:08;97973.75;;;35.24;29.87
550;BME280;20066;48.764;9.176;2023-06-19T11:27:39;97981.97;;;35.82;28.92
550;BME280;20066;48.764;9.176;2023-06-19T11:30:09;97981.78;;;35.20;29.79
550;BME280;20066;48.764;9.176;2023-06-19T11:32:37;97983.91;;;33.83;32.16
550;BME280;20066;48.764;9.176;2023-06-19T11:35:10;97986.44;;;32.64;33.33
550;BME280;20066;48.764;9.176;2023-06-19T11:37:42;97980.03;;;34.43;30.55
550;BME280;20066;48.764;9.176;2023-06-19T11:40:10;97977.22;;;34.14;31.15
550;BME280;20066;48.764;9.176;2023-06-19T11:42:44;97989.25;;;35.85;28.18
550;BME280;20066;48.764;9.176;2023-06-19T11:45:14;97980.16;;;36.48;28.41
550;BME280;20066;48.764;9.176;2023-06-19T11:47:43;97985.97;;;34.98;29.84
550;BME280;20066;48.764;9.176;2023-06-19T11:50:12;97981.63;;;36.64;26.67
550;BME280;20066;48.764;9.176;2023-06-19T11:52:43;97970.56;;;36.18;27.26
550;BME280;20066;48.764;9.176;2023-06-19T11:55:13;97969.22;;;34.11;30.18
550;BME280;20066;48.764;9.176;2023-06-19T11:57:42;97971.50;;;35.98;27.41
550;BME280;20066;48.764;9.176;2023-06-19T12:00:16;97973.22;;;35.78;27.69
550;BME280;20066;48.764;9.176;2023-06-19T12:02:44;97967.22;;;35.21;28.92
550;BME280;20066;48.764;9.176;2023-06-19T12:05:15;97966.88;;;35.47;28.29
550;BME280;20066;48.764;9.176;2023-06-19T12:07:44;97966.88;;;35.70;28.72
550;BME280;20066;48.764;9.176;2023-06-19T12:10:11;97955.38;;;32.20;33.01
550;BME280;20066;48.764;9.176;2023-06-19T12:12:39;97952.63;;;33.35;31.23
550;BME280;20066;48.764;9.176;2023-06-19T12:15:07;97948.19;;;33.19;31.28
550;BME280;20066;48.764;9.176;2023-06-19T12:17:37;97948.38;;;34.12;30.32
550;BME280;20066;48.764;9.176;2023-06-19T12:20:06;97956.44;;;35.63;28.55
550;BME280;20066;48.764;9.176;2023-06-19T12:22:34;97946.69;;;33.80;30.56
550;BME280;20066;48.764;9.176;2023-06-19T12:25:02;97938.19;;;33.93;29.82
550;BME280;20066;48.764;9.176;2023-06-19T12:27:30;97937.38;;;35.39;28.33
550;BME280;20066;48.764;9.176;2023-06-19T12:30:00;97938.63;;;35.91;27.23
550;BME280;20066;48.764;9.176;2023-06-19T12:32:27;97936.09;;;36.41;27.50
550;BME280;20066;48.764;9.176;2023-06-19T12:34:57;97935.13;;;35.75;27.31
550;BME280;20066;48.764;9.176;2023-06-19T12:37:25;97931.94;;;35.94;27.69
550;BME280;20066;48.764;9.176;2023-06-19T12:39:52;97937.16;;;37.67;25.69
550;BME280;20066;48.764;9.176;2023-06-19T12:42:20;97941.41;;;35.99;27.44
550;BME280;20066;48.764;9.176;2023-06-19T12:44:48;97927.69;;;34.15;29.68
550;BME280;20066;48.764;9.176;2023-06-19T12:47:16;97935.06;;;32.38;32.91
550;BME280;20066;48.764;9.176;2023-06-19T12:49:44;97928.19;;;32.39;32.45
550;BME280;20066;48.764;9.176;2023-06-19T12:52:14;97931.00;;;31.87;33.78
550;BME280;20066;48.764;9.176;2023-06-19T12:54:41;97924.97;;;31.69;33.96
550;BME280;20066;48.764;9.176;2023-06-19T12:57:09;97929.53;;;32.59;33.13
550;BME280;20066;48.764;9.176;2023-06-19T12:59:37;97931.25;;;31.57;34.67
550;BME280;20066;48.764;9.176;2023-06-19T13:02:05;97935.81;;;31.73;34.93
550;BME280;20066;48.764;9.176;2023-06-19T13:04:33;97933.88;;;31.04;35.18
550;BME280;20066;48.764;9.176;2023-06-19T13:07:01;97927.41;;;31.60;34.16
550;BME280;20066;48.764;9.176;2023-06-19T13:09:31;97928.69;;;33.96;30.52
550;BME280;20066;48.764;9.176;2023-06-19T13:11:59;97915.22;;;33.59;30.51
550;BME280;20066;48.764;9.176;2023-06-19T13:14:26;97917.19;;;34.95;29.05
550;BME280;20066;48.764;9.176;2023-06-19T13:16:54;97911.44;;;37.54;25.77
550;BME280;20066;48.764;9.176;2023-06-19T13:19:24;97904.88;;;36.77;26.47
550;BME280;20066;48.764;9.176;2023-06-19T13:21:52;97907.72;;;35.28;27.85
550;BME280;20066;48.764;9.176;2023-06-19T13:24:20;97908.25;;;37.74;25.63
550;BME280;20066;48.764;9.176;2023-06-19T13:26:50;97905.06;;;36.79;26.11
550;BME280;20066;48.764;9.176;2023-06-19T13:29:17;97901.91;;;35.72;27.29
550;BME280;20066;48.764;9.176;2023-06-19T13:31:45;97893.34;;;35.39;27.71
550;BME280;20066;48.764;9.176;2023-06-19T13:34:13;97904.34;;;35.37;27.54
550;BME280;20066;48.764;9.176;2023-06-19T13:36:41;97893.53;;;35.26;27.88
550;BME280;20066;48.764;9.176;2023-06-19T13:39:09;97884.22;;;36.65;26.26